Thompson, Thompson Airport (CYTH)

NameThompson Airport
CityThompson
CountryCanada
ICAOCYTH
IATAYTH
Altitude222 m
CoordinatesGoogle Map
Live Air TrafficLiveATC.net
METARCYTH 170400Z VRB04KT 15SM SCT190 19/13 A2981 RMK CI3 SLP100 DENSITY ALT 1600FT
2019-09-17 04:00:00 Wind: North (0°) 2.06 m/s - Visibility: 24140.1 m - Temperature: 19 °C - Dew point: 13 °C - Humidity: 68.3% - Pressure: 1009.48 hPa
Statistics

The table below shows the detailed information of all flights to/from Thompson, Thompson Airport (CYTH).